sensor_id;sensor_type;location;lat;lon;timestamp;P1;durP1;ratioP1;P2;durP2;ratioP2
84999;SDS011;75320;51.608;7.952;2024-01-11T00:00:36;37.80;;;18.25;;
84999;SDS011;75320;51.608;7.952;2024-01-11T00:03:01;38.80;;;19.00;;
84999;SDS011;75320;51.608;7.952;2024-01-11T00:05:27;36.55;;;19.38;;
84999;SDS011;75320;51.608;7.952;2024-01-11T00:07:53;39.03;;;18.52;;
84999;SDS011;75320;51.608;7.952;2024-01-11T00:10:18;36.75;;;18.15;;
84999;SDS011;75320;51.608;7.952;2024-01-11T00:12:44;33.22;;;15.98;;
84999;SDS011;75320;51.608;7.952;2024-01-11T00:15:09;32.08;;;17.98;;
84999;SDS011;75320;51.608;7.952;2024-01-11T00:17:35;35.83;;;17.83;;
84999;SDS011;75320;51.608;7.952;2024-01-11T00:20:01;35.08;;;17.80;;
84999;SDS011;75320;51.608;7.952;2024-01-11T00:22:27;34.53;;;18.98;;
84999;SDS011;75320;51.608;7.952;2024-01-11T00:24:52;36.07;;;18.47;;
84999;SDS011;75320;51.608;7.952;2024-01-11T00:27:17;34.38;;;18.70;;
84999;SDS011;75320;51.608;7.952;2024-01-11T00:29:43;36.43;;;19.43;;
84999;SDS011;75320;51.608;7.952;2024-01-11T00:32:08;36.77;;;18.67;;
84999;SDS011;75320;51.608;7.952;2024-01-11T00:34:34;36.95;;;17.92;;
84999;SDS011;75320;51.608;7.952;2024-01-11T00:37:01;35.47;;;19.33;;
84999;SDS011;75320;51.608;7.952;2024-01-11T00:39:26;37.90;;;19.08;;
84999;SDS011;75320;51.608;7.952;2024-01-11T00:41:52;34.85;;;19.58;;
84999;SDS011;75320;51.608;7.952;2024-01-11T00:44:17;30.87;;;17.63;;
84999;SDS011;75320;51.608;7.952;2024-01-11T00:46:42;36.27;;;19.93;;
84999;SDS011;75320;51.608;7.952;2024-01-11T00:49:08;39.63;;;18.63;;
84999;SDS011;75320;51.608;7.952;2024-01-11T00:51:33;38.92;;;19.88;;
84999;SDS011;75320;51.608;7.952;2024-01-11T00:53:58;38.20;;;19.33;;
84999;SDS011;75320;51.608;7.952;2024-01-11T00:56:24;38.87;;;20.87;;
84999;SDS011;75320;51.608;7.952;2024-01-11T00:58:49;36.53;;;18.52;;
84999;SDS011;75320;51.608;7.952;2024-01-11T01:01:14;39.67;;;19.38;;
84999;SDS011;75320;51.608;7.952;2024-01-11T01:03:41;31.65;;;17.38;;
84999;SDS011;75320;51.608;7.952;2024-01-11T01:06:07;37.00;;;18.27;;
84999;SDS011;75320;51.608;7.952;2024-01-11T01:08:33;36.08;;;21.13;;
84999;SDS011;75320;51.608;7.952;2024-01-11T01:10:58;36.87;;;19.93;;
84999;SDS011;75320;51.608;7.952;2024-01-11T01:13:25;36.10;;;19.77;;
84999;SDS011;75320;51.608;7.952;2024-01-11T01:15:50;36.40;;;19.63;;
84999;SDS011;75320;51.608;7.952;2024-01-11T01:18:16;37.23;;;20.00;;
84999;SDS011;75320;51.608;7.952;2024-01-11T01:20:41;38.83;;;21.60;;
84999;SDS011;75320;51.608;7.952;2024-01-11T01:23:09;38.97;;;19.07;;
84999;SDS011;75320;51.608;7.952;2024-01-11T01:25:34;32.55;;;19.13;;
84999;SDS011;75320;51.608;7.952;2024-01-11T01:28:00;41.50;;;18.35;;
84999;SDS011;75320;51.608;7.952;2024-01-11T01:30:26;40.47;;;20.00;;
84999;SDS011;75320;51.608;7.952;2024-01-11T01:32:52;37.20;;;21.13;;
84999;SDS011;75320;51.608;7.952;2024-01-11T01:35:18;36.67;;;20.42;;
84999;SDS011;75320;51.608;7.952;2024-01-11T01:37:43;35.40;;;19.57;;
84999;SDS011;75320;51.608;7.952;2024-01-11T01:40:09;37.45;;;18.98;;
84999;SDS011;75320;51.608;7.952;2024-01-11T01:42:34;33.85;;;16.77;;
84999;SDS011;75320;51.608;7.952;2024-01-11T01:45:00;35.57;;;18.83;;
84999;SDS011;75320;51.608;7.952;2024-01-11T01:47:25;32.13;;;17.38;;
84999;SDS011;75320;51.608;7.952;2024-01-11T01:49:53;32.95;;;19.75;;
84999;SDS011;75320;51.608;7.952;2024-01-11T01:52:20;33.72;;;18.88;;
84999;SDS011;75320;51.608;7.952;2024-01-11T01:54:47;41.63;;;18.95;;
84999;SDS011;75320;51.608;7.952;2024-01-11T01:57:14;37.53;;;19.90;;
84999;SDS011;75320;51.608;7.952;2024-01-11T01:59:42;39.60;;;19.17;;
84999;SDS011;75320;51.608;7.952;2024-01-11T02:02:08;36.63;;;18.50;;
84999;SDS011;75320;51.608;7.952;2024-01-11T02:04:34;39.03;;;18.38;;
84999;SDS011;75320;51.608;7.952;2024-01-11T02:07:02;34.30;;;19.08;;
84999;SDS011;75320;51.608;7.952;2024-01-11T02:09:27;38.00;;;17.75;;
84999;SDS011;75320;51.608;7.952;2024-01-11T02:11:53;35.53;;;18.02;;
84999;SDS011;75320;51.608;7.952;2024-01-11T02:14:19;38.83;;;19.90;;
84999;SDS011;75320;51.608;7.952;2024-01-11T02:16:46;31.38;;;18.83;;
84999;SDS011;75320;51.608;7.952;2024-01-11T02:19:12;35.88;;;18.80;;
84999;SDS011;75320;51.608;7.952;2024-01-11T02:21:40;41.15;;;20.38;;
84999;SDS011;75320;51.608;7.952;2024-01-11T02:26:33;34.72;;;18.67;;
84999;SDS011;75320;51.608;7.952;2024-01-11T02:28:59;32.83;;;16.95;;
84999;SDS011;75320;51.608;7.952;2024-01-11T02:31:25;38.20;;;19.83;;
84999;SDS011;75320;51.608;7.952;2024-01-11T02:33:54;36.75;;;18.35;;
84999;SDS011;75320;51.608;7.952;2024-01-11T02:36:20;37.33;;;19.27;;
84999;SDS011;75320;51.608;7.952;2024-01-11T02:38:46;35.05;;;18.27;;
84999;SDS011;75320;51.608;7.952;2024-01-11T02:41:15;34.25;;;19.73;;
84999;SDS011;75320;51.608;7.952;2024-01-11T02:43:45;35.90;;;18.80;;
84999;SDS011;75320;51.608;7.952;2024-01-11T02:46:11;34.47;;;18.73;;
84999;SDS011;75320;51.608;7.952;2024-01-11T02:48:37;33.33;;;18.35;;
84999;SDS011;75320;51.608;7.952;2024-01-11T02:51:03;36.90;;;18.63;;
84999;SDS011;75320;51.608;7.952;2024-01-11T02:53:29;36.10;;;20.38;;
84999;SDS011;75320;51.608;7.952;2024-01-11T02:55:59;38.17;;;18.05;;
84999;SDS011;75320;51.608;7.952;2024-01-11T02:58:24;36.08;;;19.48;;
84999;SDS011;75320;51.608;7.952;2024-01-11T03:00:49;37.63;;;20.03;;
84999;SDS011;75320;51.608;7.952;2024-01-11T03:03:16;36.05;;;18.58;;
84999;SDS011;75320;51.608;7.952;2024-01-11T03:05:42;33.17;;;16.77;;
84999;SDS011;75320;51.608;7.952;2024-01-11T03:08:08;36.38;;;18.80;;
84999;SDS011;75320;51.608;7.952;2024-01-11T03:10:33;45.97;;;19.50;;
84999;SDS011;75320;51.608;7.952;2024-01-11T03:12:59;43.10;;;19.98;;
84999;SDS011;75320;51.608;7.952;2024-01-11T03:15:24;33.95;;;16.35;;
84999;SDS011;75320;51.608;7.952;2024-01-11T03:17:50;38.63;;;19.47;;
84999;SDS011;75320;51.608;7.952;2024-01-11T03:20:17;31.67;;;17.05;;
84999;SDS011;75320;51.608;7.952;2024-01-11T03:22:46;35.83;;;20.00;;
84999;SDS011;75320;51.608;7.952;2024-01-11T03:25:12;38.17;;;19.95;;
84999;SDS011;75320;51.608;7.952;2024-01-11T03:27:37;34.25;;;17.00;;
84999;SDS011;75320;51.608;7.952;2024-01-11T03:30:02;39.60;;;19.07;;
84999;SDS011;75320;51.608;7.952;2024-01-11T03:32:29;35.25;;;18.70;;
84999;SDS011;75320;51.608;7.952;2024-01-11T03:34:54;39.10;;;19.20;;
84999;SDS011;75320;51.608;7.952;2024-01-11T03:37:20;35.30;;;19.40;;
84999;SDS011;75320;51.608;7.952;2024-01-11T03:39:46;43.50;;;18.75;;
84999;SDS011;75320;51.608;7.952;2024-01-11T03:42:12;34.10;;;19.02;;
84999;SDS011;75320;51.608;7.952;2024-01-11T03:44:37;38.30;;;19.97;;
84999;SDS011;75320;51.608;7.952;2024-01-11T03:47:03;37.38;;;18.13;;
84999;SDS011;75320;51.608;7.952;2024-01-11T03:49:29;37.28;;;20.30;;
84999;SDS011;75320;51.608;7.952;2024-01-11T03:51:54;36.03;;;18.83;;
84999;SDS011;75320;51.608;7.952;2024-01-11T03:54:20;41.50;;;21.17;;
84999;SDS011;75320;51.608;7.952;2024-01-11T03:56:47;34.30;;;18.43;;
84999;SDS011;75320;51.608;7.952;2024-01-11T03:59:13;31.50;;;17.20;;
84999;SDS011;75320;51.608;7.952;2024-01-11T04:01:42;41.92;;;20.45;;
84999;SDS011;75320;51.608;7.952;2024-01-11T04:04:08;33.80;;;17.63;;
84999;SDS011;75320;51.608;7.952;2024-01-11T04:06:33;33.67;;;18.17;;
84999;SDS011;75320;51.608;7.952;2024-01-11T04:09:00;33.38;;;18.70;;
84999;SDS011;75320;51.608;7.952;2024-01-11T04:11:29;34.15;;;16.83;;
84999;SDS011;75320;51.608;7.952;2024-01-11T04:13:55;39.83;;;19.60;;
84999;SDS011;75320;51.608;7.952;2024-01-11T04:16:21;37.35;;;19.67;;
84999;SDS011;75320;51.608;7.952;2024-01-11T04:18:46;37.10;;;19.13;;
84999;SDS011;75320;51.608;7.952;2024-01-11T04:21:27;35.35;;;18.02;;
84999;SDS011;75320;51.608;7.952;2024-01-11T04:23:58;37.80;;;17.25;;
84999;SDS011;75320;51.608;7.952;2024-01-11T04:26:23;30.63;;;18.10;;
84999;SDS011;75320;51.608;7.952;2024-01-11T04:28:49;35.40;;;19.10;;
84999;SDS011;75320;51.608;7.952;2024-01-11T04:31:16;33.85;;;17.70;;
84999;SDS011;75320;51.608;7.952;2024-01-11T04:33:42;31.35;;;16.77;;
84999;SDS011;75320;51.608;7.952;2024-01-11T04:36:12;33.60;;;17.45;;
84999;SDS011;75320;51.608;7.952;2024-01-11T04:38:38;35.80;;;19.80;;
84999;SDS011;75320;51.608;7.952;2024-01-11T04:41:10;33.13;;;19.00;;
84999;SDS011;75320;51.608;7.952;2024-01-11T04:43:37;35.58;;;18.90;;
84999;SDS011;75320;51.608;7.952;2024-01-11T04:46:19;37.67;;;19.65;;
84999;SDS011;75320;51.608;7.952;2024-01-11T04:48:46;34.55;;;18.88;;
84999;SDS011;75320;51.608;7.952;2024-01-11T04:51:14;36.72;;;18.25;;
84999;SDS011;75320;51.608;7.952;2024-01-11T04:53:40;36.28;;;17.70;;
84999;SDS011;75320;51.608;7.952;2024-01-11T04:56:06;35.58;;;18.45;;
84999;SDS011;75320;51.608;7.952;2024-01-11T04:58:32;35.13;;;18.05;;
84999;SDS011;75320;51.608;7.952;2024-01-11T05:00:59;36.75;;;17.65;;
84999;SDS011;75320;51.608;7.952;2024-01-11T05:03:26;37.05;;;17.33;;
84999;SDS011;75320;51.608;7.952;2024-01-11T05:05:51;35.60;;;19.48;;
84999;SDS011;75320;51.608;7.952;2024-01-11T05:08:16;36.38;;;19.40;;
84999;SDS011;75320;51.608;7.952;2024-01-11T05:10:42;33.77;;;18.33;;
84999;SDS011;75320;51.608;7.952;2024-01-11T05:13:07;30.83;;;19.17;;
84999;SDS011;75320;51.608;7.952;2024-01-11T05:15:34;35.20;;;18.33;;
84999;SDS011;75320;51.608;7.952;2024-01-11T05:18:02;34.10;;;19.35;;
84999;SDS011;75320;51.608;7.952;2024-01-11T05:20:28;32.10;;;17.50;;
84999;SDS011;75320;51.608;7.952;2024-01-11T05:22:54;36.92;;;19.30;;
84999;SDS011;75320;51.608;7.952;2024-01-11T05:25:21;35.78;;;18.65;;
84999;SDS011;75320;51.608;7.952;2024-01-11T05:27:46;36.30;;;17.23;;
84999;SDS011;75320;51.608;7.952;2024-01-11T05:30:12;41.75;;;21.33;;
84999;SDS011;75320;51.608;7.952;2024-01-11T05:32:38;41.22;;;20.10;;
84999;SDS011;75320;51.608;7.952;2024-01-11T05:35:04;34.47;;;17.67;;
84999;SDS011;75320;51.608;7.952;2024-01-11T05:37:30;32.85;;;18.95;;
84999;SDS011;75320;51.608;7.952;2024-01-11T05:39:58;36.70;;;17.88;;
84999;SDS011;75320;51.608;7.952;2024-01-11T05:42:24;35.87;;;17.80;;
84999;SDS011;75320;51.608;7.952;2024-01-11T05:44:51;35.42;;;18.08;;
84999;SDS011;75320;51.608;7.952;2024-01-11T05:47:16;38.67;;;19.00;;
84999;SDS011;75320;51.608;7.952;2024-01-11T05:49:42;34.42;;;18.08;;
84999;SDS011;75320;51.608;7.952;2024-01-11T05:52:08;37.03;;;17.80;;
84999;SDS011;75320;51.608;7.952;2024-01-11T05:54:33;35.93;;;18.80;;
84999;SDS011;75320;51.608;7.952;2024-01-11T05:56:58;37.13;;;17.30;;
84999;SDS011;75320;51.608;7.952;2024-01-11T05:59:24;36.28;;;21.13;;
84999;SDS011;75320;51.608;7.952;2024-01-11T06:01:50;33.58;;;19.48;;
84999;SDS011;75320;51.608;7.952;2024-01-11T06:04:16;33.92;;;17.90;;
84999;SDS011;75320;51.608;7.952;2024-01-11T06:06:42;36.30;;;18.43;;
84999;SDS011;75320;51.608;7.952;2024-01-11T06:09:07;34.90;;;19.42;;
84999;SDS011;75320;51.608;7.952;2024-01-11T06:11:33;41.20;;;19.08;;
84999;SDS011;75320;51.608;7.952;2024-01-11T06:13:59;30.60;;;17.90;;
84999;SDS011;75320;51.608;7.952;2024-01-11T06:16:25;36.38;;;20.15;;
84999;SDS011;75320;51.608;7.952;2024-01-11T06:18:52;43.40;;;20.52;;
84999;SDS011;75320;51.608;7.952;2024-01-11T06:21:18;37.53;;;21.00;;
84999;SDS011;75320;51.608;7.952;2024-01-11T06:23:44;40.07;;;20.93;;
84999;SDS011;75320;51.608;7.952;2024-01-11T06:26:09;35.65;;;18.83;;
84999;SDS011;75320;51.608;7.952;2024-01-11T06:28:35;33.75;;;17.05;;
84999;SDS011;75320;51.608;7.952;2024-01-11T06:31:00;34.33;;;18.00;;
84999;SDS011;75320;51.608;7.952;2024-01-11T06:33:26;33.45;;;19.25;;
84999;SDS011;75320;51.608;7.952;2024-01-11T06:35:53;33.70;;;19.77;;
84999;SDS011;75320;51.608;7.952;2024-01-11T06:38:18;42.33;;;23.17;;
84999;SDS011;75320;51.608;7.952;2024-01-11T06:40:44;39.77;;;20.33;;
84999;SDS011;75320;51.608;7.952;2024-01-11T06:43:09;43.37;;;22.03;;
84999;SDS011;75320;51.608;7.952;2024-01-11T06:45:34;39.08;;;22.02;;
84999;SDS011;75320;51.608;7.952;2024-01-11T06:48:00;42.70;;;22.73;;
84999;SDS011;75320;51.608;7.952;2024-01-11T06:50:26;44.10;;;22.05;;
84999;SDS011;75320;51.608;7.952;2024-01-11T06:52:51;43.42;;;20.48;;
84999;SDS011;75320;51.608;7.952;2024-01-11T06:55:18;41.53;;;22.43;;
84999;SDS011;75320;51.608;7.952;2024-01-11T06:57:51;45.35;;;22.27;;
84999;SDS011;75320;51.608;7.952;2024-01-11T07:00:16;39.95;;;21.77;;
84999;SDS011;75320;51.608;7.952;2024-01-11T07:02:42;53.08;;;26.60;;
84999;SDS011;75320;51.608;7.952;2024-01-11T07:05:09;45.88;;;24.30;;
84999;SDS011;75320;51.608;7.952;2024-01-11T07:07:35;45.73;;;22.20;;
84999;SDS011;75320;51.608;7.952;2024-01-11T07:10:01;43.20;;;20.35;;
84999;SDS011;75320;51.608;7.952;2024-01-11T07:12:27;37.75;;;20.33;;
84999;SDS011;75320;51.608;7.952;2024-01-11T07:14:53;41.40;;;20.67;;
84999;SDS011;75320;51.608;7.952;2024-01-11T07:17:20;36.33;;;19.52;;
84999;SDS011;75320;51.608;7.952;2024-01-11T07:19:45;43.00;;;26.27;;
84999;SDS011;75320;51.608;7.952;2024-01-11T07:22:10;40.60;;;22.10;;
84999;SDS011;75320;51.608;7.952;2024-01-11T07:24:38;47.97;;;25.38;;
84999;SDS011;75320;51.608;7.952;2024-01-11T07:27:06;40.77;;;22.30;;
84999;SDS011;75320;51.608;7.952;2024-01-11T07:29:33;37.78;;;22.58;;
84999;SDS011;75320;51.608;7.952;2024-01-11T07:31:59;45.83;;;22.90;;
84999;SDS011;75320;51.608;7.952;2024-01-11T07:34:25;39.05;;;21.23;;
84999;SDS011;75320;51.608;7.952;2024-01-11T07:36:52;36.95;;;22.27;;
84999;SDS011;75320;51.608;7.952;2024-01-11T07:39:17;42.30;;;21.83;;
84999;SDS011;75320;51.608;7.952;2024-01-11T07:41:44;38.97;;;21.48;;
84999;SDS011;75320;51.608;7.952;2024-01-11T07:44:11;40.05;;;22.25;;
84999;SDS011;75320;51.608;7.952;2024-01-11T07:46:36;43.67;;;24.43;;
84999;SDS011;75320;51.608;7.952;2024-01-11T07:49:03;50.35;;;25.63;;
84999;SDS011;75320;51.608;7.952;2024-01-11T07:51:28;48.42;;;23.90;;
84999;SDS011;75320;51.608;7.952;2024-01-11T07:53:54;48.78;;;23.55;;
84999;SDS011;75320;51.608;7.952;2024-01-11T07:56:19;47.55;;;22.00;;
84999;SDS011;75320;51.608;7.952;2024-01-11T07:58:47;45.50;;;23.60;;
84999;SDS011;75320;51.608;7.952;2024-01-11T08:01:12;52.05;;;26.65;;
84999;SDS011;75320;51.608;7.952;2024-01-11T08:03:37;50.20;;;27.63;;
84999;SDS011;75320;51.608;7.952;2024-01-11T08:06:03;44.65;;;26.17;;
84999;SDS011;75320;51.608;7.952;2024-01-11T08:08:32;38.05;;;22.27;;
84999;SDS011;75320;51.608;7.952;2024-01-11T08:10:58;38.60;;;20.77;;
84999;SDS011;75320;51.608;7.952;2024-01-11T08:13:23;44.17;;;23.77;;
84999;SDS011;75320;51.608;7.952;2024-01-11T08:15:48;47.80;;;26.58;;
84999;SDS011;75320;51.608;7.952;2024-01-11T08:18:14;41.88;;;23.80;;
84999;SDS011;75320;51.608;7.952;2024-01-11T08:20:40;46.72;;;25.27;;
84999;SDS011;75320;51.608;7.952;2024-01-11T08:23:05;41.10;;;22.23;;
84999;SDS011;75320;51.608;7.952;2024-01-11T08:25:31;47.05;;;24.40;;
84999;SDS011;75320;51.608;7.952;2024-01-11T08:27:57;43.22;;;23.77;;
84999;SDS011;75320;51.608;7.952;2024-01-11T08:30:24;42.90;;;22.45;;
84999;SDS011;75320;51.608;7.952;2024-01-11T08:32:49;40.70;;;22.77;;
84999;SDS011;75320;51.608;7.952;2024-01-11T08:35:15;42.17;;;23.77;;
84999;SDS011;75320;51.608;7.952;2024-01-11T08:37:41;42.42;;;24.73;;
84999;SDS011;75320;51.608;7.952;2024-01-11T08:40:06;41.03;;;20.10;;
84999;SDS011;75320;51.608;7.952;2024-01-11T08:42:34;42.17;;;21.88;;
84999;SDS011;75320;51.608;7.952;2024-01-11T08:44:59;38.97;;;25.77;;
84999;SDS011;75320;51.608;7.952;2024-01-11T08:47:31;41.58;;;22.42;;
84999;SDS011;75320;51.608;7.952;2024-01-11T08:49:56;45.40;;;22.75;;
84999;SDS011;75320;51.608;7.952;2024-01-11T08:52:22;41.80;;;20.53;;
84999;SDS011;75320;51.608;7.952;2024-01-11T08:54:47;39.15;;;22.13;;
84999;SDS011;75320;51.608;7.952;2024-01-11T08:57:14;45.08;;;22.17;;
84999;SDS011;75320;51.608;7.952;2024-01-11T08:59:40;45.20;;;23.30;;
84999;SDS011;75320;51.608;7.952;2024-01-11T09:02:06;43.63;;;22.02;;
84999;SDS011;75320;51.608;7.952;2024-01-11T09:04:31;40.75;;;21.50;;
84999;SDS011;75320;51.608;7.952;2024-01-11T09:06:57;43.67;;;21.00;;
84999;SDS011;75320;51.608;7.952;2024-01-11T09:09:22;47.63;;;22.80;;
84999;SDS011;75320;51.608;7.952;2024-01-11T09:11:47;44.13;;;23.08;;
84999;SDS011;75320;51.608;7.952;2024-01-11T09:14:14;47.58;;;23.70;;
84999;SDS011;75320;51.608;7.952;2024-01-11T09:16:39;46.97;;;24.57;;
84999;SDS011;75320;51.608;7.952;2024-01-11T09:19:06;55.30;;;27.92;;
84999;SDS011;75320;51.608;7.952;2024-01-11T09:21:32;65.35;;;32.83;;
84999;SDS011;75320;51.608;7.952;2024-01-11T09:23:57;44.80;;;23.98;;
84999;SDS011;75320;51.608;7.952;2024-01-11T09:26:23;48.77;;;25.03;;
84999;SDS011;75320;51.608;7.952;2024-01-11T09:28:48;40.78;;;22.17;;
84999;SDS011;75320;51.608;7.952;2024-01-11T09:31:14;46.13;;;20.63;;
84999;SDS011;75320;51.608;7.952;2024-01-11T09:33:39;43.03;;;23.58;;
84999;SDS011;75320;51.608;7.952;2024-01-11T09:36:07;44.22;;;24.48;;
84999;SDS011;75320;51.608;7.952;2024-01-11T09:41:08;43.67;;;19.23;;
84999;SDS011;75320;51.608;7.952;2024-01-11T09:43:34;46.75;;;24.77;;
84999;SDS011;75320;51.608;7.952;2024-01-11T09:46:03;43.05;;;20.48;;
84999;SDS011;75320;51.608;7.952;2024-01-11T09:48:31;44.20;;;24.05;;
84999;SDS011;75320;51.608;7.952;2024-01-11T09:50:57;44.15;;;25.45;;
84999;SDS011;75320;51.608;7.952;2024-01-11T09:53:26;41.25;;;22.17;;
84999;SDS011;75320;51.608;7.952;2024-01-11T09:55:52;40.33;;;22.60;;
84999;SDS011;75320;51.608;7.952;2024-01-11T09:58:21;38.85;;;24.42;;
84999;SDS011;75320;51.608;7.952;2024-01-11T10:00:47;41.05;;;23.20;;
84999;SDS011;75320;51.608;7.952;2024-01-11T10:03:18;44.88;;;21.75;;
84999;SDS011;75320;51.608;7.952;2024-01-11T10:05:43;44.13;;;22.38;;
84999;SDS011;75320;51.608;7.952;2024-01-11T10:08:10;52.60;;;25.10;;
84999;SDS011;75320;51.608;7.952;2024-01-11T10:10:36;38.28;;;22.60;;
84999;SDS011;75320;51.608;7.952;2024-01-11T10:13:01;45.75;;;24.20;;
84999;SDS011;75320;51.608;7.952;2024-01-11T10:15:27;42.42;;;22.42;;
84999;SDS011;75320;51.608;7.952;2024-01-11T10:17:53;41.72;;;21.73;;
84999;SDS011;75320;51.608;7.952;2024-01-11T10:20:19;41.53;;;23.00;;
84999;SDS011;75320;51.608;7.952;2024-01-11T10:22:49;48.08;;;23.88;;
84999;SDS011;75320;51.608;7.952;2024-01-11T10:25:15;40.03;;;21.65;;
84999;SDS011;75320;51.608;7.952;2024-01-11T10:27:44;42.92;;;21.25;;
84999;SDS011;75320;51.608;7.952;2024-01-11T10:30:13;43.95;;;22.55;;
84999;SDS011;75320;51.608;7.952;2024-01-11T10:32:41;38.75;;;22.05;;
84999;SDS011;75320;51.608;7.952;2024-01-11T10:35:07;38.58;;;22.70;;
84999;SDS011;75320;51.608;7.952;2024-01-11T10:37:33;47.70;;;23.33;;
84999;SDS011;75320;51.608;7.952;2024-01-11T10:40:01;42.95;;;22.83;;
84999;SDS011;75320;51.608;7.952;2024-01-11T10:42:29;44.50;;;23.77;;
84999;SDS011;75320;51.608;7.952;2024-01-11T10:44:57;42.38;;;21.05;;
84999;SDS011;75320;51.608;7.952;2024-01-11T10:47:24;40.17;;;22.35;;
84999;SDS011;75320;51.608;7.952;2024-01-11T10:49:56;42.97;;;22.70;;
84999;SDS011;75320;51.608;7.952;2024-01-11T10:52:28;45.85;;;22.65;;
84999;SDS011;75320;51.608;7.952;2024-01-11T10:55:01;46.22;;;24.45;;
84999;SDS011;75320;51.608;7.952;2024-01-11T10:57:27;47.97;;;22.13;;
84999;SDS011;75320;51.608;7.952;2024-01-11T10:59:54;41.40;;;22.30;;
84999;SDS011;75320;51.608;7.952;2024-01-11T11:02:20;45.35;;;22.80;;
84999;SDS011;75320;51.608;7.952;2024-01-11T11:04:47;40.97;;;21.50;;
84999;SDS011;75320;51.608;7.952;2024-01-11T11:07:16;40.60;;;22.00;;
84999;SDS011;75320;51.608;7.952;2024-01-11T11:09:44;43.05;;;21.73;;
84999;SDS011;75320;51.608;7.952;2024-01-11T11:12:11;40.83;;;23.38;;
84999;SDS011;75320;51.608;7.952;2024-01-11T11:14:37;41.78;;;21.73;;
84999;SDS011;75320;51.608;7.952;2024-01-11T11:17:03;39.85;;;21.40;;
84999;SDS011;75320;51.608;7.952;2024-01-11T11:19:29;39.28;;;21.55;;
84999;SDS011;75320;51.608;7.952;2024-01-11T11:21:55;39.72;;;21.98;;
84999;SDS011;75320;51.608;7.952;2024-01-11T11:24:20;38.97;;;22.17;;
84999;SDS011;75320;51.608;7.952;2024-01-11T11:26:46;42.78;;;22.45;;
84999;SDS011;75320;51.608;7.952;2024-01-11T11:29:12;41.35;;;22.92;;
84999;SDS011;75320;51.608;7.952;2024-01-11T11:31:37;43.13;;;22.60;;
84999;SDS011;75320;51.608;7.952;2024-01-11T11:34:07;42.47;;;22.45;;
84999;SDS011;75320;51.608;7.952;2024-01-11T11:36:36;41.65;;;21.05;;
84999;SDS011;75320;51.608;7.952;2024-01-11T11:39:01;44.90;;;22.13;;
84999;SDS011;75320;51.608;7.952;2024-01-11T11:41:27;45.80;;;24.92;;
84999;SDS011;75320;51.608;7.952;2024-01-11T11:46:25;46.00;;;22.83;;
84999;SDS011;75320;51.608;7.952;2024-01-11T11:48:51;43.40;;;23.10;;
84999;SDS011;75320;51.608;7.952;2024-01-11T11:51:20;45.70;;;22.85;;
84999;SDS011;75320;51.608;7.952;2024-01-11T11:53:47;45.20;;;22.40;;
84999;SDS011;75320;51.608;7.952;2024-01-11T11:56:13;42.72;;;24.80;;
84999;SDS011;75320;51.608;7.952;2024-01-11T11:58:43;42.10;;;21.63;;
84999;SDS011;75320;51.608;7.952;2024-01-11T12:01:09;44.38;;;21.60;;
84999;SDS011;75320;51.608;7.952;2024-01-11T12:03:40;44.92;;;23.83;;
84999;SDS011;75320;51.608;7.952;2024-01-11T12:06:06;43.35;;;24.65;;
84999;SDS011;75320;51.608;7.952;2024-01-11T12:08:33;43.28;;;23.70;;
84999;SDS011;75320;51.608;7.952;2024-01-11T12:11:00;47.72;;;24.58;;
84999;SDS011;75320;51.608;7.952;2024-01-11T12:13:26;45.42;;;24.30;;
84999;SDS011;75320;51.608;7.952;2024-01-11T12:15:52;45.30;;;24.20;;
84999;SDS011;75320;51.608;7.952;2024-01-11T12:18:18;45.33;;;23.55;;
84999;SDS011;75320;51.608;7.952;2024-01-11T12:20:44;49.42;;;25.70;;
84999;SDS011;75320;51.608;7.952;2024-01-11T12:23:09;47.50;;;24.55;;
84999;SDS011;75320;51.608;7.952;2024-01-11T12:25:38;47.53;;;24.02;;
84999;SDS011;75320;51.608;7.952;2024-01-11T12:28:05;40.47;;;22.90;;
84999;SDS011;75320;51.608;7.952;2024-01-11T12:30:32;47.83;;;25.50;;
84999;SDS011;75320;51.608;7.952;2024-01-11T12:32:58;40.03;;;23.27;;
84999;SDS011;75320;51.608;7.952;2024-01-11T12:35:26;43.28;;;23.02;;
84999;SDS011;75320;51.608;7.952;2024-01-11T12:37:55;40.22;;;22.52;;
84999;SDS011;75320;51.608;7.952;2024-01-11T12:40:27;46.72;;;22.08;;
84999;SDS011;75320;51.608;7.952;2024-01-11T12:42:53;39.42;;;22.00;;
84999;SDS011;75320;51.608;7.952;2024-01-11T12:45:19;34.33;;;19.90;;
84999;SDS011;75320;51.608;7.952;2024-01-11T12:47:44;34.80;;;20.02;;
84999;SDS011;75320;51.608;7.952;2024-01-11T12:50:11;33.15;;;19.15;;
84999;SDS011;75320;51.608;7.952;2024-01-11T12:52:37;40.53;;;18.98;;
84999;SDS011;75320;51.608;7.952;2024-01-11T12:55:03;33.50;;;19.60;;
84999;SDS011;75320;51.608;7.952;2024-01-11T12:57:29;38.30;;;19.23;;
84999;SDS011;75320;51.608;7.952;2024-01-11T12:59:55;39.83;;;20.77;;
84999;SDS011;75320;51.608;7.952;2024-01-11T13:02:35;30.90;;;17.95;;
84999;SDS011;75320;51.608;7.952;2024-01-11T13:05:02;37.97;;;21.48;;
84999;SDS011;75320;51.608;7.952;2024-01-11T13:07:28;31.95;;;17.95;;
84999;SDS011;75320;51.608;7.952;2024-01-11T13:09:59;35.03;;;19.70;;
84999;SDS011;75320;51.608;7.952;2024-01-11T13:12:24;34.95;;;19.42;;
84999;SDS011;75320;51.608;7.952;2024-01-11T13:14:50;40.00;;;20.97;;
84999;SDS011;75320;51.608;7.952;2024-01-11T13:17:17;35.70;;;19.40;;
84999;SDS011;75320;51.608;7.952;2024-01-11T13:19:43;33.80;;;18.17;;
84999;SDS011;75320;51.608;7.952;2024-01-11T13:22:10;29.48;;;15.65;;
84999;SDS011;75320;51.608;7.952;2024-01-11T13:24:35;30.35;;;15.75;;
84999;SDS011;75320;51.608;7.952;2024-01-11T13:27:02;30.85;;;15.38;;
84999;SDS011;75320;51.608;7.952;2024-01-11T13:29:30;27.88;;;13.50;;
84999;SDS011;75320;51.608;7.952;2024-01-11T13:31:55;23.40;;;13.25;;
84999;SDS011;75320;51.608;7.952;2024-01-11T13:34:21;21.15;;;11.63;;
84999;SDS011;75320;51.608;7.952;2024-01-11T13:36:46;16.05;;;9.60;;
84999;SDS011;75320;51.608;7.952;2024-01-11T13:39:12;21.02;;;11.20;;
84999;SDS011;75320;51.608;7.952;2024-01-11T13:41:37;23.00;;;10.02;;
84999;SDS011;75320;51.608;7.952;2024-01-11T13:44:05;22.75;;;11.25;;
84999;SDS011;75320;51.608;7.952;2024-01-11T13:46:31;18.20;;;9.77;;
84999;SDS011;75320;51.608;7.952;2024-01-11T13:48:57;19.20;;;9.90;;
84999;SDS011;75320;51.608;7.952;2024-01-11T13:51:23;19.35;;;10.00;;
84999;SDS011;75320;51.608;7.952;2024-01-11T13:53:49;22.48;;;11.50;;
84999;SDS011;75320;51.608;7.952;2024-01-11T13:56:14;21.83;;;9.90;;
84999;SDS011;75320;51.608;7.952;2024-01-11T13:58:41;22.45;;;9.73;;
84999;SDS011;75320;51.608;7.952;2024-01-11T14:01:06;21.63;;;10.57;;
84999;SDS011;75320;51.608;7.952;2024-01-11T14:03:33;20.13;;;9.52;;
84999;SDS011;75320;51.608;7.952;2024-01-11T14:05:59;18.33;;;10.00;;
84999;SDS011;75320;51.608;7.952;2024-01-11T14:08:25;21.77;;;10.48;;
84999;SDS011;75320;51.608;7.952;2024-01-11T14:10:51;22.13;;;11.02;;
84999;SDS011;75320;51.608;7.952;2024-01-11T14:13:19;17.90;;;11.00;;
84999;SDS011;75320;51.608;7.952;2024-01-11T14:15:45;19.07;;;9.67;;
84999;SDS011;75320;51.608;7.952;2024-01-11T14:18:13;19.67;;;8.48;;
84999;SDS011;75320;51.608;7.952;2024-01-11T14:20:38;18.85;;;9.18;;
84999;SDS011;75320;51.608;7.952;2024-01-11T14:23:04;20.33;;;8.77;;